createdAt,value
2022-08-23T00:00:52.376Z,22.33
2022-08-23T00:06:18.306Z,21.99
2022-08-23T00:11:43.784Z,22.21
2022-08-23T00:17:09.115Z,22.23
2022-08-23T00:22:33.477Z,22.13
2022-08-23T00:27:56.710Z,22.19
2022-08-23T00:33:21.779Z,22.09
2022-08-23T00:38:46.423Z,22.13
2022-08-23T00:44:32.586Z,22.31
2022-08-23T00:49:59.425Z,22.36
2022-08-23T00:55:24.706Z,22.36
2022-08-23T01:00:48.612Z,22.30
2022-08-23T01:06:15.779Z,22.36
2022-08-23T01:11:46.419Z,22.37
2022-08-23T01:17:11.680Z,22.29
2022-08-23T01:22:41.732Z,22.19
2022-08-23T01:28:06.501Z,22.16
2022-08-23T01:33:29.820Z,22.12
2022-08-23T01:38:53.098Z,22.14
2022-08-23T01:44:17.624Z,21.97
2022-08-23T01:49:40.773Z,22.17
2022-08-23T01:55:04.623Z,22.17
2022-08-23T02:00:32.874Z,22.11
2022-08-23T02:05:56.419Z,22.07
2022-08-23T02:11:22.606Z,21.98
2022-08-23T02:17:03.256Z,22.00
2022-08-23T02:22:28.528Z,21.99
2022-08-23T02:27:51.615Z,21.97
2022-08-23T02:33:16.578Z,21.88
2022-08-23T02:38:40.375Z,21.82
2022-08-23T02:44:04.095Z,21.85
2022-08-23T02:49:28.678Z,21.71
2022-08-23T02:54:53.286Z,21.67
2022-08-23T03:00:21.916Z,21.64
2022-08-23T03:05:48.527Z,21.57
2022-08-23T03:11:15.448Z,21.60
2022-08-23T03:16:41.504Z,21.64
2022-08-23T03:22:13.922Z,21.49
2022-08-23T03:27:38.290Z,21.49
2022-08-23T03:33:07.843Z,21.36
2022-08-23T03:38:33.424Z,21.29
2022-08-23T03:43:56.759Z,21.39
2022-08-23T03:49:21.383Z,21.42
2022-08-23T03:54:50.218Z,21.39
2022-08-23T04:00:20.239Z,21.40
2022-08-23T04:05:44.867Z,21.42
2022-08-23T04:11:14.541Z,21.43
2022-08-23T04:16:48.499Z,21.41
2022-08-23T04:22:13.081Z,21.44
2022-08-23T04:27:38.775Z,21.41
2022-08-23T04:33:01.994Z,21.28
2022-08-23T04:38:27.596Z,21.31
2022-08-23T04:43:56.304Z,21.31
2022-08-23T04:49:24.456Z,21.33
2022-08-23T04:54:48.539Z,21.27
2022-08-23T05:00:50.819Z,21.12
2022-08-23T05:06:17.351Z,21.04
2022-08-23T05:11:40.524Z,20.91
2022-08-23T05:17:06.036Z,21.12
2022-08-23T05:22:34.051Z,21.31
2022-08-23T05:28:30.096Z,21.42
2022-08-23T05:33:55.582Z,21.34
2022-08-23T05:39:44.754Z,21.44
2022-08-23T05:45:09.818Z,21.53
2022-08-23T05:50:37.186Z,21.68
2022-08-23T05:56:09.981Z,21.73
2022-08-23T06:01:34.065Z,21.73
2022-08-23T06:07:06.603Z,21.98
2022-08-23T06:12:29.779Z,22.20
2022-08-23T06:17:53.125Z,22.34
2022-08-23T06:23:18.498Z,22.46
2022-08-23T06:28:50.839Z,22.39
2022-08-23T06:34:19.334Z,22.60
2022-08-23T06:39:59.725Z,22.66
2022-08-23T06:45:35.466Z,22.81
2022-08-23T06:50:59.377Z,22.93
2022-08-23T06:56:36.256Z,22.97
2022-08-23T07:02:05.808Z,23.00
2022-08-23T07:07:49.564Z,23.38
2022-08-23T07:13:18.383Z,23.45
2022-08-23T07:18:41.795Z,23.63
2022-08-23T07:24:05.303Z,23.80
2022-08-23T07:29:30.915Z,24.42
2022-08-23T07:34:54.478Z,25.22
2022-08-23T07:40:20.235Z,25.70
2022-08-23T07:45:46.173Z,26.19
2022-08-23T07:51:13.298Z,26.48
2022-08-23T07:56:37.342Z,26.91
2022-08-23T08:02:11.647Z,26.79
2022-08-23T08:07:37.734Z,27.16
2022-08-23T08:13:01.153Z,27.37
2022-08-23T08:18:26.580Z,27.28
2022-08-23T08:24:19.123Z,26.85
2022-08-23T08:29:48.498Z,26.99
2022-08-23T08:35:13.500Z,26.90
2022-08-23T08:40:41.403Z,27.37
2022-08-23T08:46:08.141Z,27.55
2022-08-23T08:51:45.401Z,28.04
2022-08-23T08:57:09.571Z,27.28
2022-08-23T09:02:40.224Z,27.35
2022-08-23T09:08:30.388Z,27.09
2022-08-23T09:14:30.109Z,27.65
2022-08-23T09:19:58.388Z,27.38
2022-08-23T09:25:24.061Z,27.92
2022-08-23T09:31:01.071Z,28.00
2022-08-23T09:36:28.501Z,28.42
2022-08-23T09:41:56.921Z,28.86
2022-08-23T09:47:20.086Z,29.08
2022-08-23T09:52:48.930Z,28.84
2022-08-23T09:58:23.521Z,28.52
2022-08-23T10:03:47.556Z,27.37
2022-08-23T10:09:27.686Z,27.55
2022-08-23T10:14:52.739Z,27.96
2022-08-23T10:20:27.758Z,28.52
2022-08-23T10:25:55.714Z,28.88
2022-08-23T10:31:32.628Z,29.68
2022-08-23T10:37:14.327Z,30.04
2022-08-23T10:42:44.728Z,29.54
2022-08-23T10:48:21.241Z,28.86
2022-08-23T10:53:49.932Z,28.51
2022-08-23T10:59:15.842Z,28.31
2022-08-23T11:04:49.943Z,28.38
2022-08-23T11:10:31.273Z,28.68
2022-08-23T11:16:00.825Z,28.93
2022-08-23T11:21:50.177Z,29.23
2022-08-23T11:27:27.267Z,28.89
2022-08-23T11:32:50.732Z,29.04
2022-08-23T11:38:22.669Z,29.39
2022-08-23T11:43:47.831Z,29.41
2022-08-23T11:49:29.211Z,29.76
2022-08-23T11:55:13.139Z,29.75
2022-08-23T12:00:55.194Z,29.96
2022-08-23T12:06:40.749Z,29.95
2022-08-23T12:12:33.647Z,29.73
2022-08-23T12:18:14.618Z,29.82
2022-08-23T12:23:47.920Z,29.70
2022-08-23T12:29:21.260Z,29.66
2022-08-23T12:34:54.692Z,29.74
2022-08-23T12:40:32.812Z,29.70
2022-08-23T12:45:58.965Z,29.23
2022-08-23T12:51:22.265Z,28.51
2022-08-23T12:56:47.805Z,28.78
2022-08-23T13:02:16.205Z,28.97
2022-08-23T13:07:41.279Z,28.91
2022-08-23T13:13:04.642Z,29.03
2022-08-23T13:18:34.471Z,29.21
2022-08-23T13:24:00.740Z,29.16
2022-08-23T13:29:25.931Z,29.11
2022-08-23T13:34:53.268Z,29.09
2022-08-23T13:40:23.865Z,29.15
2022-08-23T13:45:49.605Z,29.03
2022-08-23T13:51:26.110Z,29.25
2022-08-23T13:56:51.269Z,29.48
2022-08-23T14:02:16.539Z,29.42
2022-08-23T14:07:40.996Z,29.74
2022-08-23T14:13:04.113Z,29.82
2022-08-23T14:18:27.251Z,29.88
2022-08-23T14:23:51.796Z,29.57
2022-08-23T14:29:15.319Z,29.70
2022-08-23T14:34:38.660Z,29.76
2022-08-23T14:40:03.304Z,29.64
2022-08-23T14:45:27.265Z,29.63
2022-08-23T14:50:50.793Z,29.65
2022-08-23T14:56:21.592Z,29.85
2022-08-23T15:01:45.972Z,29.60
2022-08-23T15:07:18.652Z,29.77
2022-08-23T15:13:03.134Z,29.15
2022-08-23T15:18:27.431Z,28.89
2022-08-23T15:23:51.257Z,28.72
2022-08-23T15:29:19.027Z,28.57
2022-08-23T15:34:46.389Z,28.90
2022-08-23T15:40:11.222Z,29.14
2022-08-23T15:45:36.188Z,29.31
2022-08-23T15:51:00.504Z,29.02
2022-08-23T15:56:28.596Z,28.86
2022-08-23T16:01:53.457Z,28.74
2022-08-23T16:07:18.019Z,28.48
2022-08-23T16:12:42.324Z,28.33
2022-08-23T16:18:06.957Z,28.19
2022-08-23T16:23:30.088Z,28.22
2022-08-23T16:28:55.194Z,28.09
2022-08-23T16:34:21.148Z,27.96
2022-08-23T16:39:45.115Z,28.13
2022-08-23T16:45:09.563Z,28.11
2022-08-23T16:50:34.278Z,28.07
2022-08-23T16:55:57.389Z,27.95
2022-08-23T17:01:20.696Z,27.62
2022-08-23T17:06:46.339Z,27.37
2022-08-23T17:12:10.920Z,27.33
2022-08-23T17:17:34.020Z,27.18
2022-08-23T17:22:58.621Z,27.03
2022-08-23T17:28:21.716Z,27.07
2022-08-23T17:33:46.335Z,27.06
2022-08-23T17:39:14.215Z,26.89
2022-08-23T17:44:37.521Z,27.07
2022-08-23T17:50:00.834Z,26.82
2022-08-23T17:55:25.428Z,26.72
2022-08-23T18:00:52.044Z,26.83
2022-08-23T18:06:17.415Z,26.73
2022-08-23T18:11:42.038Z,26.62
2022-08-23T18:17:05.341Z,26.55
2022-08-23T18:22:28.805Z,26.52
2022-08-23T18:28:09.744Z,26.46
2022-08-23T18:33:46.969Z,26.33
2022-08-23T18:39:11.148Z,26.05
2022-08-23T18:44:35.720Z,26.02
2022-08-23T18:49:58.816Z,25.89
2022-08-23T18:55:21.901Z,25.66
2022-08-23T19:00:46.640Z,25.63
2022-08-23T19:06:12.609Z,25.77
2022-08-23T19:11:37.299Z,25.78
2022-08-23T19:17:04.180Z,25.74
2022-08-23T19:22:27.447Z,25.77
2022-08-23T19:27:50.512Z,25.64
2022-08-23T19:33:15.107Z,25.60
2022-08-23T19:38:38.221Z,25.13
2022-08-23T19:44:02.572Z,25.30
2022-08-23T19:49:27.047Z,25.23
2022-08-23T19:54:50.289Z,25.07
2022-08-23T20:00:19.348Z,24.87
2022-08-23T20:05:44.409Z,24.69
2022-08-23T20:11:08.101Z,24.65
2022-08-23T20:16:32.675Z,24.89
2022-08-23T20:22:18.363Z,24.91
2022-08-23T20:27:41.595Z,24.75
2022-08-23T20:33:11.811Z,24.82
2022-08-23T20:38:37.557Z,24.82
2022-08-23T20:44:00.785Z,24.81
2022-08-23T20:49:24.531Z,24.76
2022-08-23T20:54:49.076Z,24.73
2022-08-23T21:00:13.234Z,24.61
2022-08-23T21:05:36.410Z,24.59
2022-08-23T21:11:01.070Z,24.54
2022-08-23T21:16:24.742Z,24.44
2022-08-23T21:21:48.101Z,24.37
2022-08-23T21:27:36.041Z,24.20
2022-08-23T21:32:59.888Z,24.13
2022-08-23T21:38:22.999Z,24.11
2022-08-23T21:43:48.568Z,24.10
2022-08-23T21:49:12.421Z,24.03
2022-08-23T21:54:38.222Z,24.01
2022-08-23T22:00:06.284Z,23.94
2022-08-23T22:05:39.894Z,23.89
2022-08-23T22:11:07.182Z,23.82
2022-08-23T22:16:31.667Z,23.74
2022-08-23T22:21:54.814Z,23.68
2022-08-23T22:27:18.581Z,23.60
2022-08-23T22:32:43.569Z,23.55
2022-08-23T22:38:14.839Z,23.45
2022-08-23T22:43:38.229Z,23.27
2022-08-23T22:49:03.111Z,23.39
2022-08-23T22:54:26.218Z,23.33
2022-08-23T22:59:49.406Z,23.25
2022-08-23T23:05:14.880Z,23.19
2022-08-23T23:10:37.987Z,23.14
2022-08-23T23:16:03.739Z,23.05
2022-08-23T23:21:28.185Z,23.02
2022-08-23T23:26:51.832Z,22.99
2022-08-23T23:32:15.722Z,22.96
2022-08-23T23:37:40.125Z,22.91
2022-08-23T23:43:03.331Z,22.85
2022-08-23T23:48:26.439Z,22.69
2022-08-23T23:53:51.418Z,22.53
2022-08-23T23:59:16.237Z,22.61
